sensor_id;sensor_type;location;lat;lon;timestamp;P1;durP1;ratioP1;P2;durP2;ratioP2
45909;SDS011;31622;55.416;37.840;2023-12-07T00:00:52;8.15;;;6.50;;
45909;SDS011;31622;55.416;37.840;2023-12-07T00:03:18;8.95;;;6.75;;
45909;SDS011;31622;55.416;37.840;2023-12-07T00:05:43;7.78;;;6.40;;
45909;SDS011;31622;55.416;37.840;2023-12-07T00:08:10;8.40;;;6.82;;
45909;SDS011;31622;55.416;37.840;2023-12-07T00:10:36;9.40;;;7.10;;
45909;SDS011;31622;55.416;37.840;2023-12-07T00:13:02;8.82;;;6.18;;
45909;SDS011;31622;55.416;37.840;2023-12-07T00:15:28;9.02;;;7.10;;
45909;SDS011;31622;55.416;37.840;2023-12-07T00:17:53;7.85;;;6.30;;
45909;SDS011;31622;55.416;37.840;2023-12-07T00:20:19;9.93;;;7.00;;
45909;SDS011;31622;55.416;37.840;2023-12-07T00:22:45;8.57;;;6.60;;
45909;SDS011;31622;55.416;37.840;2023-12-07T00:25:11;10.70;;;6.82;;
45909;SDS011;31622;55.416;37.840;2023-12-07T00:27:36;7.80;;;6.40;;
45909;SDS011;31622;55.416;37.840;2023-12-07T00:30:02;9.70;;;6.75;;
45909;SDS011;31622;55.416;37.840;2023-12-07T00:32:28;8.90;;;6.40;;
45909;SDS011;31622;55.416;37.840;2023-12-07T00:34:54;8.55;;;6.63;;
45909;SDS011;31622;55.416;37.840;2023-12-07T00:37:20;8.43;;;6.45;;
45909;SDS011;31622;55.416;37.840;2023-12-07T00:39:46;8.05;;;6.18;;
45909;SDS011;31622;55.416;37.840;2023-12-07T00:42:12;9.55;;;6.63;;
45909;SDS011;31622;55.416;37.840;2023-12-07T00:44:41;8.18;;;6.45;;
45909;SDS011;31622;55.416;37.840;2023-12-07T00:47:06;7.63;;;6.18;;
45909;SDS011;31622;55.416;37.840;2023-12-07T00:49:32;7.82;;;6.57;;
45909;SDS011;31622;55.416;37.840;2023-12-07T00:51:58;7.07;;;5.97;;
45909;SDS011;31622;55.416;37.840;2023-12-07T00:54:24;8.73;;;6.25;;
45909;SDS011;31622;55.416;37.840;2023-12-07T00:56:50;8.55;;;6.35;;
45909;SDS011;31622;55.416;37.840;2023-12-07T00:59:16;7.97;;;5.95;;
45909;SDS011;31622;55.416;37.840;2023-12-07T01:01:42;8.55;;;6.13;;
45909;SDS011;31622;55.416;37.840;2023-12-07T01:04:07;8.50;;;6.20;;
45909;SDS011;31622;55.416;37.840;2023-12-07T01:06:33;9.05;;;6.07;;
45909;SDS011;31622;55.416;37.840;2023-12-07T01:08:59;7.97;;;6.15;;
45909;SDS011;31622;55.416;37.840;2023-12-07T01:11:25;8.20;;;5.70;;
45909;SDS011;31622;55.416;37.840;2023-12-07T01:13:51;7.65;;;6.10;;
45909;SDS011;31622;55.416;37.840;2023-12-07T01:16:16;8.48;;;5.72;;
45909;SDS011;31622;55.416;37.840;2023-12-07T01:18:42;7.68;;;5.35;;
45909;SDS011;31622;55.416;37.840;2023-12-07T01:21:09;7.63;;;5.78;;
45909;SDS011;31622;55.416;37.840;2023-12-07T01:23:35;8.18;;;5.88;;
45909;SDS011;31622;55.416;37.840;2023-12-07T01:26:00;7.13;;;5.30;;
45909;SDS011;31622;55.416;37.840;2023-12-07T01:28:27;7.80;;;5.70;;
45909;SDS011;31622;55.416;37.840;2023-12-07T01:30:53;7.75;;;5.53;;
45909;SDS011;31622;55.416;37.840;2023-12-07T01:33:20;7.50;;;5.90;;
45909;SDS011;31622;55.416;37.840;2023-12-07T01:35:47;8.63;;;5.95;;
45909;SDS011;31622;55.416;37.840;2023-12-07T01:38:12;6.85;;;5.70;;
45909;SDS011;31622;55.416;37.840;2023-12-07T01:40:38;7.75;;;5.00;;
45909;SDS011;31622;55.416;37.840;2023-12-07T01:43:04;7.97;;;6.00;;
45909;SDS011;31622;55.416;37.840;2023-12-07T01:45:30;7.38;;;5.80;;
45909;SDS011;31622;55.416;37.840;2023-12-07T01:47:56;7.70;;;5.30;;
45909;SDS011;31622;55.416;37.840;2023-12-07T01:50:23;7.57;;;5.70;;
45909;SDS011;31622;55.416;37.840;2023-12-07T01:52:51;6.95;;;5.35;;
45909;SDS011;31622;55.416;37.840;2023-12-07T01:55:20;7.22;;;5.50;;
45909;SDS011;31622;55.416;37.840;2023-12-07T01:57:46;7.25;;;5.55;;
45909;SDS011;31622;55.416;37.840;2023-12-07T02:00:13;6.40;;;5.43;;
45909;SDS011;31622;55.416;37.840;2023-12-07T02:02:39;6.78;;;5.57;;
45909;SDS011;31622;55.416;37.840;2023-12-07T02:05:05;9.38;;;5.70;;
45909;SDS011;31622;55.416;37.840;2023-12-07T02:07:31;7.15;;;5.65;;
45909;SDS011;31622;55.416;37.840;2023-12-07T02:09:58;6.72;;;5.43;;
45909;SDS011;31622;55.416;37.840;2023-12-07T02:12:24;6.72;;;5.47;;
45909;SDS011;31622;55.416;37.840;2023-12-07T02:14:50;7.47;;;5.38;;
45909;SDS011;31622;55.416;37.840;2023-12-07T02:17:21;6.55;;;5.13;;
45909;SDS011;31622;55.416;37.840;2023-12-07T02:19:49;6.78;;;5.20;;
45909;SDS011;31622;55.416;37.840;2023-12-07T02:22:25;7.50;;;5.10;;
45909;SDS011;31622;55.416;37.840;2023-12-07T02:25:00;7.10;;;4.95;;
45909;SDS011;31622;55.416;37.840;2023-12-07T02:27:35;7.88;;;5.05;;
45909;SDS011;31622;55.416;37.840;2023-12-07T02:30:00;9.48;;;5.63;;
45909;SDS011;31622;55.416;37.840;2023-12-07T02:32:26;7.05;;;5.32;;
45909;SDS011;31622;55.416;37.840;2023-12-07T02:34:52;7.13;;;5.50;;
45909;SDS011;31622;55.416;37.840;2023-12-07T02:37:18;7.05;;;5.32;;
45909;SDS011;31622;55.416;37.840;2023-12-07T02:39:44;7.95;;;5.10;;
45909;SDS011;31622;55.416;37.840;2023-12-07T02:42:10;7.25;;;5.38;;
45909;SDS011;31622;55.416;37.840;2023-12-07T02:44:37;8.32;;;5.07;;
45909;SDS011;31622;55.416;37.840;2023-12-07T02:47:02;6.90;;;5.30;;
45909;SDS011;31622;55.416;37.840;2023-12-07T02:49:28;7.50;;;5.25;;
45909;SDS011;31622;55.416;37.840;2023-12-07T02:51:54;6.68;;;4.80;;
45909;SDS011;31622;55.416;37.840;2023-12-07T02:54:20;5.82;;;4.57;;
45909;SDS011;31622;55.416;37.840;2023-12-07T02:56:47;7.07;;;5.28;;
45909;SDS011;31622;55.416;37.840;2023-12-07T02:59:13;6.30;;;4.65;;
45909;SDS011;31622;55.416;37.840;2023-12-07T03:01:39;6.32;;;5.03;;
45909;SDS011;31622;55.416;37.840;2023-12-07T03:04:05;6.80;;;4.80;;
45909;SDS011;31622;55.416;37.840;2023-12-07T03:06:31;6.10;;;4.55;;
45909;SDS011;31622;55.416;37.840;2023-12-07T03:08:56;6.28;;;4.97;;
45909;SDS011;31622;55.416;37.840;2023-12-07T03:11:22;6.13;;;4.50;;
45909;SDS011;31622;55.416;37.840;2023-12-07T03:13:49;7.80;;;4.75;;
45909;SDS011;31622;55.416;37.840;2023-12-07T03:16:15;7.45;;;4.88;;
45909;SDS011;31622;55.416;37.840;2023-12-07T03:18:40;6.93;;;5.18;;
45909;SDS011;31622;55.416;37.840;2023-12-07T03:21:06;6.00;;;4.93;;
45909;SDS011;31622;55.416;37.840;2023-12-07T03:23:32;6.70;;;5.30;;
45909;SDS011;31622;55.416;37.840;2023-12-07T03:25:58;6.60;;;5.05;;
45909;SDS011;31622;55.416;37.840;2023-12-07T03:28:23;7.13;;;4.55;;
45909;SDS011;31622;55.416;37.840;2023-12-07T03:30:49;6.72;;;5.00;;
45909;SDS011;31622;55.416;37.840;2023-12-07T03:33:15;6.07;;;4.70;;
45909;SDS011;31622;55.416;37.840;2023-12-07T03:35:41;5.80;;;4.75;;
45909;SDS011;31622;55.416;37.840;2023-12-07T03:38:07;5.88;;;4.78;;
45909;SDS011;31622;55.416;37.840;2023-12-07T03:40:33;6.32;;;4.85;;
45909;SDS011;31622;55.416;37.840;2023-12-07T03:42:58;6.13;;;4.47;;
45909;SDS011;31622;55.416;37.840;2023-12-07T03:45:24;6.15;;;4.60;;
45909;SDS011;31622;55.416;37.840;2023-12-07T03:47:50;5.90;;;4.38;;
45909;SDS011;31622;55.416;37.840;2023-12-07T03:50:16;6.35;;;4.47;;
45909;SDS011;31622;55.416;37.840;2023-12-07T03:52:41;6.30;;;4.65;;
45909;SDS011;31622;55.416;37.840;2023-12-07T03:55:07;6.70;;;5.10;;
45909;SDS011;31622;55.416;37.840;2023-12-07T03:57:33;6.70;;;4.68;;
45909;SDS011;31622;55.416;37.840;2023-12-07T03:59:59;6.72;;;5.00;;
45909;SDS011;31622;55.416;37.840;2023-12-07T04:02:25;5.97;;;4.78;;
45909;SDS011;31622;55.416;37.840;2023-12-07T04:04:51;7.55;;;4.97;;
45909;SDS011;31622;55.416;37.840;2023-12-07T04:07:16;6.47;;;5.20;;
45909;SDS011;31622;55.416;37.840;2023-12-07T04:09:42;6.60;;;5.00;;
45909;SDS011;31622;55.416;37.840;2023-12-07T04:12:08;6.78;;;4.72;;
45909;SDS011;31622;55.416;37.840;2023-12-07T04:14:34;6.65;;;4.47;;
45909;SDS011;31622;55.416;37.840;2023-12-07T04:17:00;6.22;;;4.68;;
45909;SDS011;31622;55.416;37.840;2023-12-07T04:19:25;6.22;;;4.40;;
45909;SDS011;31622;55.416;37.840;2023-12-07T04:21:51;6.70;;;4.85;;
45909;SDS011;31622;55.416;37.840;2023-12-07T04:24:17;5.28;;;4.63;;
45909;SDS011;31622;55.416;37.840;2023-12-07T04:26:43;7.30;;;4.30;;
45909;SDS011;31622;55.416;37.840;2023-12-07T04:29:08;7.50;;;4.97;;
45909;SDS011;31622;55.416;37.840;2023-12-07T04:31:34;7.72;;;4.55;;
45909;SDS011;31622;55.416;37.840;2023-12-07T04:34:01;5.78;;;4.72;;
45909;SDS011;31622;55.416;37.840;2023-12-07T04:36:26;7.85;;;5.30;;
45909;SDS011;31622;55.416;37.840;2023-12-07T04:38:52;5.90;;;4.38;;
45909;SDS011;31622;55.416;37.840;2023-12-07T04:41:18;7.50;;;4.88;;
45909;SDS011;31622;55.416;37.840;2023-12-07T04:43:44;6.97;;;4.65;;
45909;SDS011;31622;55.416;37.840;2023-12-07T04:46:09;6.00;;;4.53;;
45909;SDS011;31622;55.416;37.840;2023-12-07T04:48:35;7.53;;;5.05;;
45909;SDS011;31622;55.416;37.840;2023-12-07T04:51:01;9.55;;;5.57;;
45909;SDS011;31622;55.416;37.840;2023-12-07T04:53:26;9.77;;;6.35;;
45909;SDS011;31622;55.416;37.840;2023-12-07T04:55:52;7.65;;;5.43;;
45909;SDS011;31622;55.416;37.840;2023-12-07T04:58:18;10.30;;;6.30;;
45909;SDS011;31622;55.416;37.840;2023-12-07T05:00:44;13.00;;;5.80;;
45909;SDS011;31622;55.416;37.840;2023-12-07T05:03:09;10.05;;;5.63;;
45909;SDS011;31622;55.416;37.840;2023-12-07T05:05:35;10.15;;;6.05;;
45909;SDS011;31622;55.416;37.840;2023-12-07T05:08:01;11.02;;;5.65;;
45909;SDS011;31622;55.416;37.840;2023-12-07T05:10:28;13.05;;;5.70;;
45909;SDS011;31622;55.416;37.840;2023-12-07T05:12:54;11.50;;;5.65;;
45909;SDS011;31622;55.416;37.840;2023-12-07T05:15:21;9.23;;;5.90;;
45909;SDS011;31622;55.416;37.840;2023-12-07T05:17:47;8.73;;;5.07;;
45909;SDS011;31622;55.416;37.840;2023-12-07T05:20:13;17.48;;;5.63;;
45909;SDS011;31622;55.416;37.840;2023-12-07T05:22:38;8.93;;;5.63;;
45909;SDS011;31622;55.416;37.840;2023-12-07T05:25:04;13.02;;;5.63;;
45909;SDS011;31622;55.416;37.840;2023-12-07T05:27:30;7.93;;;5.28;;
45909;SDS011;31622;55.416;37.840;2023-12-07T05:29:56;8.82;;;5.85;;
45909;SDS011;31622;55.416;37.840;2023-12-07T05:32:22;11.52;;;6.20;;
45909;SDS011;31622;55.416;37.840;2023-12-07T05:34:48;7.85;;;5.10;;
45909;SDS011;31622;55.416;37.840;2023-12-07T05:37:13;10.05;;;5.90;;
45909;SDS011;31622;55.416;37.840;2023-12-07T05:39:39;7.53;;;4.93;;
45909;SDS011;31622;55.416;37.840;2023-12-07T05:42:05;10.10;;;5.57;;
45909;SDS011;31622;55.416;37.840;2023-12-07T05:44:31;9.05;;;5.60;;
45909;SDS011;31622;55.416;37.840;2023-12-07T05:46:57;10.02;;;5.80;;
45909;SDS011;31622;55.416;37.840;2023-12-07T05:49:23;8.98;;;6.05;;
45909;SDS011;31622;55.416;37.840;2023-12-07T05:51:49;8.82;;;5.85;;
45909;SDS011;31622;55.416;37.840;2023-12-07T05:54:14;7.90;;;5.47;;
45909;SDS011;31622;55.416;37.840;2023-12-07T05:56:41;8.38;;;6.13;;
45909;SDS011;31622;55.416;37.840;2023-12-07T05:59:08;7.97;;;5.60;;
45909;SDS011;31622;55.416;37.840;2023-12-07T06:01:33;9.57;;;6.10;;
45909;SDS011;31622;55.416;37.840;2023-12-07T06:03:59;8.32;;;5.93;;
45909;SDS011;31622;55.416;37.840;2023-12-07T06:06:25;7.10;;;5.60;;
45909;SDS011;31622;55.416;37.840;2023-12-07T06:08:51;9.27;;;6.18;;
45909;SDS011;31622;55.416;37.840;2023-12-07T06:11:16;7.65;;;6.05;;
45909;SDS011;31622;55.416;37.840;2023-12-07T06:13:42;8.02;;;5.70;;
45909;SDS011;31622;55.416;37.840;2023-12-07T06:16:11;7.65;;;5.78;;
45909;SDS011;31622;55.416;37.840;2023-12-07T06:18:38;7.72;;;5.75;;
45909;SDS011;31622;55.416;37.840;2023-12-07T06:21:03;8.25;;;5.82;;
45909;SDS011;31622;55.416;37.840;2023-12-07T06:23:29;9.18;;;5.90;;
45909;SDS011;31622;55.416;37.840;2023-12-07T06:25:55;10.07;;;5.90;;
45909;SDS011;31622;55.416;37.840;2023-12-07T06:28:20;7.97;;;5.43;;
45909;SDS011;31622;55.416;37.840;2023-12-07T06:30:46;8.27;;;5.63;;
45909;SDS011;31622;55.416;37.840;2023-12-07T06:33:12;8.20;;;5.70;;
45909;SDS011;31622;55.416;37.840;2023-12-07T06:35:38;8.45;;;5.78;;
45909;SDS011;31622;55.416;37.840;2023-12-07T06:38:04;7.68;;;5.43;;
45909;SDS011;31622;55.416;37.840;2023-12-07T06:40:29;8.15;;;5.80;;
45909;SDS011;31622;55.416;37.840;2023-12-07T06:42:56;8.52;;;5.50;;
45909;SDS011;31622;55.416;37.840;2023-12-07T06:45:22;7.40;;;5.15;;
45909;SDS011;31622;55.416;37.840;2023-12-07T06:47:48;6.85;;;4.90;;
45909;SDS011;31622;55.416;37.840;2023-12-07T06:50:14;6.60;;;5.25;;
45909;SDS011;31622;55.416;37.840;2023-12-07T06:52:39;7.85;;;5.25;;
45909;SDS011;31622;55.416;37.840;2023-12-07T06:55:06;7.13;;;4.55;;
45909;SDS011;31622;55.416;37.840;2023-12-07T06:57:32;6.80;;;4.72;;
45909;SDS011;31622;55.416;37.840;2023-12-07T06:59:58;6.60;;;4.82;;
45909;SDS011;31622;55.416;37.840;2023-12-07T07:02:24;7.03;;;4.85;;
45909;SDS011;31622;55.416;37.840;2023-12-07T07:04:51;7.53;;;4.70;;
45909;SDS011;31622;55.416;37.840;2023-12-07T07:07:17;6.00;;;4.80;;
45909;SDS011;31622;55.416;37.840;2023-12-07T07:09:43;7.75;;;4.90;;
45909;SDS011;31622;55.416;37.840;2023-12-07T07:12:08;6.03;;;4.28;;
45909;SDS011;31622;55.416;37.840;2023-12-07T07:14:35;7.35;;;4.57;;
45909;SDS011;31622;55.416;37.840;2023-12-07T07:17:00;5.60;;;4.43;;
45909;SDS011;31622;55.416;37.840;2023-12-07T07:19:26;5.90;;;4.60;;
45909;SDS011;31622;55.416;37.840;2023-12-07T07:21:52;6.53;;;4.55;;
45909;SDS011;31622;55.416;37.840;2023-12-07T07:24:18;6.05;;;4.55;;
45909;SDS011;31622;55.416;37.840;2023-12-07T07:26:43;7.28;;;4.75;;
45909;SDS011;31622;55.416;37.840;2023-12-07T07:29:09;6.43;;;4.22;;
45909;SDS011;31622;55.416;37.840;2023-12-07T07:31:35;5.65;;;4.22;;
45909;SDS011;31622;55.416;37.840;2023-12-07T07:34:01;5.30;;;4.00;;
45909;SDS011;31622;55.416;37.840;2023-12-07T07:36:27;5.70;;;4.28;;
45909;SDS011;31622;55.416;37.840;2023-12-07T07:38:54;6.65;;;4.68;;
45909;SDS011;31622;55.416;37.840;2023-12-07T07:41:20;5.45;;;4.18;;
45909;SDS011;31622;55.416;37.840;2023-12-07T07:43:46;9.52;;;4.35;;
45909;SDS011;31622;55.416;37.840;2023-12-07T07:46:12;10.10;;;4.20;;
45909;SDS011;31622;55.416;37.840;2023-12-07T07:48:37;12.48;;;4.50;;
45909;SDS011;31622;55.416;37.840;2023-12-07T07:51:04;16.33;;;4.15;;
45909;SDS011;31622;55.416;37.840;2023-12-07T07:53:30;7.03;;;4.35;;
45909;SDS011;31622;55.416;37.840;2023-12-07T07:55:56;10.43;;;4.15;;
45909;SDS011;31622;55.416;37.840;2023-12-07T07:58:21;13.48;;;4.43;;
45909;SDS011;31622;55.416;37.840;2023-12-07T08:00:47;7.00;;;4.55;;
45909;SDS011;31622;55.416;37.840;2023-12-07T08:03:13;10.60;;;5.50;;
45909;SDS011;31622;55.416;37.840;2023-12-07T08:05:39;12.43;;;5.97;;
45909;SDS011;31622;55.416;37.840;2023-12-07T08:08:04;14.95;;;7.10;;
45909;SDS011;31622;55.416;37.840;2023-12-07T08:10:30;11.63;;;7.32;;
45909;SDS011;31622;55.416;37.840;2023-12-07T08:12:56;11.55;;;7.68;;
45909;SDS011;31622;55.416;37.840;2023-12-07T08:15:21;10.52;;;7.78;;
45909;SDS011;31622;55.416;37.840;2023-12-07T08:17:47;12.38;;;8.55;;
45909;SDS011;31622;55.416;37.840;2023-12-07T08:20:13;12.40;;;7.60;;
45909;SDS011;31622;55.416;37.840;2023-12-07T08:22:40;11.18;;;8.55;;
45909;SDS011;31622;55.416;37.840;2023-12-07T08:25:09;11.25;;;8.02;;
45909;SDS011;31622;55.416;37.840;2023-12-07T08:27:36;11.13;;;7.90;;
45909;SDS011;31622;55.416;37.840;2023-12-07T08:30:03;12.23;;;8.75;;
45909;SDS011;31622;55.416;37.840;2023-12-07T08:32:29;10.13;;;8.07;;
45909;SDS011;31622;55.416;37.840;2023-12-07T08:34:55;12.48;;;7.50;;
45909;SDS011;31622;55.416;37.840;2023-12-07T08:37:21;10.02;;;7.20;;
45909;SDS011;31622;55.416;37.840;2023-12-07T08:39:46;10.85;;;7.50;;
45909;SDS011;31622;55.416;37.840;2023-12-07T08:42:12;9.85;;;7.00;;
45909;SDS011;31622;55.416;37.840;2023-12-07T08:44:38;7.97;;;6.57;;
45909;SDS011;31622;55.416;37.840;2023-12-07T08:47:04;10.63;;;6.95;;
45909;SDS011;31622;55.416;37.840;2023-12-07T08:49:30;9.95;;;7.25;;
45909;SDS011;31622;55.416;37.840;2023-12-07T08:51:56;10.80;;;6.80;;
45909;SDS011;31622;55.416;37.840;2023-12-07T08:54:22;8.93;;;6.80;;
45909;SDS011;31622;55.416;37.840;2023-12-07T08:56:48;14.55;;;7.35;;
45909;SDS011;31622;55.416;37.840;2023-12-07T08:59:14;14.05;;;7.07;;
45909;SDS011;31622;55.416;37.840;2023-12-07T09:01:40;13.77;;;7.43;;
45909;SDS011;31622;55.416;37.840;2023-12-07T09:04:05;14.38;;;7.68;;
45909;SDS011;31622;55.416;37.840;2023-12-07T09:06:31;14.82;;;7.28;;
45909;SDS011;31622;55.416;37.840;2023-12-07T09:08:57;14.40;;;7.78;;
45909;SDS011;31622;55.416;37.840;2023-12-07T09:11:23;14.05;;;7.35;;
45909;SDS011;31622;55.416;37.840;2023-12-07T09:13:49;13.27;;;7.03;;
45909;SDS011;31622;55.416;37.840;2023-12-07T09:16:18;13.95;;;7.15;;
45909;SDS011;31622;55.416;37.840;2023-12-07T09:18:44;12.95;;;8.02;;
45909;SDS011;31622;55.416;37.840;2023-12-07T09:21:11;12.27;;;6.90;;
45909;SDS011;31622;55.416;37.840;2023-12-07T09:23:37;15.95;;;7.10;;
45909;SDS011;31622;55.416;37.840;2023-12-07T09:26:03;10.43;;;6.20;;
45909;SDS011;31622;55.416;37.840;2023-12-07T09:28:29;11.80;;;6.63;;
45909;SDS011;31622;55.416;37.840;2023-12-07T09:30:54;10.90;;;6.63;;
45909;SDS011;31622;55.416;37.840;2023-12-07T09:33:20;13.38;;;6.90;;
45909;SDS011;31622;55.416;37.840;2023-12-07T09:35:46;10.95;;;6.38;;
45909;SDS011;31622;55.416;37.840;2023-12-07T09:38:12;10.18;;;6.45;;
45909;SDS011;31622;55.416;37.840;2023-12-07T09:40:38;13.75;;;6.53;;
45909;SDS011;31622;55.416;37.840;2023-12-07T09:43:04;11.50;;;5.70;;
45909;SDS011;31622;55.416;37.840;2023-12-07T09:45:30;9.82;;;5.72;;
45909;SDS011;31622;55.416;37.840;2023-12-07T09:47:56;9.07;;;5.45;;
45909;SDS011;31622;55.416;37.840;2023-12-07T09:50:22;9.23;;;5.70;;
45909;SDS011;31622;55.416;37.840;2023-12-07T09:52:50;9.55;;;5.95;;
45909;SDS011;31622;55.416;37.840;2023-12-07T09:55:17;10.77;;;6.90;;
45909;SDS011;31622;55.416;37.840;2023-12-07T09:57:43;11.20;;;7.25;;
45909;SDS011;31622;55.416;37.840;2023-12-07T10:00:12;13.32;;;8.38;;
45909;SDS011;31622;55.416;37.840;2023-12-07T10:02:41;13.38;;;9.18;;
45909;SDS011;31622;55.416;37.840;2023-12-07T10:05:08;15.15;;;9.93;;
45909;SDS011;31622;55.416;37.840;2023-12-07T10:07:36;19.30;;;11.23;;
45909;SDS011;31622;55.416;37.840;2023-12-07T10:10:04;16.40;;;11.10;;
45909;SDS011;31622;55.416;37.840;2023-12-07T10:12:34;15.18;;;10.25;;
45909;SDS011;31622;55.416;37.840;2023-12-07T10:15:01;15.13;;;9.32;;
45909;SDS011;31622;55.416;37.840;2023-12-07T10:17:48;18.35;;;10.23;;
45909;SDS011;31622;55.416;37.840;2023-12-07T10:20:16;13.60;;;9.68;;
45909;SDS011;31622;55.416;37.840;2023-12-07T10:22:49;15.02;;;9.65;;
45909;SDS011;31622;55.416;37.840;2023-12-07T10:25:20;16.27;;;10.02;;
45909;SDS011;31622;55.416;37.840;2023-12-07T10:27:46;13.60;;;8.80;;
45909;SDS011;31622;55.416;37.840;2023-12-07T10:30:12;13.55;;;9.38;;
45909;SDS011;31622;55.416;37.840;2023-12-07T10:32:38;17.65;;;8.68;;
45909;SDS011;31622;55.416;37.840;2023-12-07T10:35:08;12.48;;;8.20;;
45909;SDS011;31622;55.416;37.840;2023-12-07T10:37:35;11.30;;;7.95;;
45909;SDS011;31622;55.416;37.840;2023-12-07T10:40:01;13.30;;;7.72;;
45909;SDS011;31622;55.416;37.840;2023-12-07T10:42:27;20.88;;;8.52;;
45909;SDS011;31622;55.416;37.840;2023-12-07T10:44:57;9.18;;;6.90;;
45909;SDS011;31622;55.416;37.840;2023-12-07T10:47:23;9.20;;;7.03;;
45909;SDS011;31622;55.416;37.840;2023-12-07T10:49:51;8.70;;;6.20;;
45909;SDS011;31622;55.416;37.840;2023-12-07T10:52:18;11.20;;;6.82;;
45909;SDS011;31622;55.416;37.840;2023-12-07T10:54:50;11.55;;;7.30;;
45909;SDS011;31622;55.416;37.840;2023-12-07T10:57:26;9.15;;;6.50;;
45909;SDS011;31622;55.416;37.840;2023-12-07T10:59:52;8.60;;;6.15;;
45909;SDS011;31622;55.416;37.840;2023-12-07T11:02:20;7.65;;;5.47;;
45909;SDS011;31622;55.416;37.840;2023-12-07T11:04:46;8.05;;;6.13;;
45909;SDS011;31622;55.416;37.840;2023-12-07T11:07:13;7.80;;;5.72;;
45909;SDS011;31622;55.416;37.840;2023-12-07T11:09:47;7.17;;;5.57;;
45909;SDS011;31622;55.416;37.840;2023-12-07T11:12:35;6.55;;;5.40;;
45909;SDS011;31622;55.416;37.840;2023-12-07T11:15:06;7.35;;;5.65;;
45909;SDS011;31622;55.416;37.840;2023-12-07T11:17:47;7.63;;;5.15;;
45909;SDS011;31622;55.416;37.840;2023-12-07T11:22:47;7.47;;;5.55;;
45909;SDS011;31622;55.416;37.840;2023-12-07T11:25:14;7.10;;;5.20;;
45909;SDS011;31622;55.416;37.840;2023-12-07T11:27:40;7.63;;;5.78;;
45909;SDS011;31622;55.416;37.840;2023-12-07T11:30:12;8.32;;;5.55;;
45909;SDS011;31622;55.416;37.840;2023-12-07T11:32:39;6.25;;;5.05;;
45909;SDS011;31622;55.416;37.840;2023-12-07T11:35:05;7.47;;;5.45;;
45909;SDS011;31622;55.416;37.840;2023-12-07T11:40:34;7.30;;;5.20;;
45909;SDS011;31622;55.416;37.840;2023-12-07T11:43:01;10.02;;;6.38;;
45909;SDS011;31622;55.416;37.840;2023-12-07T11:45:37;9.60;;;7.50;;
45909;SDS011;31622;55.416;37.840;2023-12-07T11:48:14;11.18;;;8.05;;
45909;SDS011;31622;55.416;37.840;2023-12-07T11:51:00;11.05;;;9.00;;
45909;SDS011;31622;55.416;37.840;2023-12-07T11:53:36;13.75;;;9.63;;
45909;SDS011;31622;55.416;37.840;2023-12-07T11:56:06;12.77;;;9.65;;
45909;SDS011;31622;55.416;37.840;2023-12-07T11:58:37;13.88;;;9.85;;
45909;SDS011;31622;55.416;37.840;2023-12-07T12:01:03;13.32;;;10.20;;
45909;SDS011;31622;55.416;37.840;2023-12-07T12:03:30;15.07;;;10.65;;
45909;SDS011;31622;55.416;37.840;2023-12-07T12:05:59;10.98;;;9.30;;
45909;SDS011;31622;55.416;37.840;2023-12-07T12:08:27;10.73;;;9.30;;
45909;SDS011;31622;55.416;37.840;2023-12-07T12:10:54;11.40;;;9.80;;
45909;SDS011;31622;55.416;37.840;2023-12-07T12:13:28;12.65;;;9.77;;
45909;SDS011;31622;55.416;37.840;2023-12-07T12:15:58;11.80;;;9.80;;
45909;SDS011;31622;55.416;37.840;2023-12-07T12:18:24;12.13;;;9.98;;
45909;SDS011;31622;55.416;37.840;2023-12-07T12:20:51;13.05;;;10.13;;
45909;SDS011;31622;55.416;37.840;2023-12-07T12:23:18;13.57;;;10.02;;
45909;SDS011;31622;55.416;37.840;2023-12-07T12:25:44;13.07;;;11.32;;
45909;SDS011;31622;55.416;37.840;2023-12-07T12:28:10;13.00;;;10.02;;
45909;SDS011;31622;55.416;37.840;2023-12-07T12:30:37;11.73;;;10.15;;
45909;SDS011;31622;55.416;37.840;2023-12-07T12:33:03;11.95;;;9.80;;
45909;SDS011;31622;55.416;37.840;2023-12-07T12:35:29;13.10;;;10.05;;
45909;SDS011;31622;55.416;37.840;2023-12-07T12:37:55;12.02;;;9.80;;
45909;SDS011;31622;55.416;37.840;2023-12-07T12:40:22;11.65;;;9.70;;
45909;SDS011;31622;55.416;37.840;2023-12-07T12:42:49;11.68;;;9.48;;
45909;SDS011;31622;55.416;37.840;2023-12-07T12:45:16;10.93;;;9.20;;
45909;SDS011;31622;55.416;37.840;2023-12-07T12:47:46;10.82;;;8.68;;
45909;SDS011;31622;55.416;37.840;2023-12-07T12:50:12;10.27;;;9.05;;
45909;SDS011;31622;55.416;37.840;2023-12-07T12:52:58;12.57;;;8.90;;
45909;SDS011;31622;55.416;37.840;2023-12-07T12:55:27;9.60;;;8.18;;
45909;SDS011;31622;55.416;37.840;2023-12-07T12:57:55;10.32;;;8.75;;
45909;SDS011;31622;55.416;37.840;2023-12-07T13:00:20;11.65;;;8.10;;
45909;SDS011;31622;55.416;37.840;2023-12-07T13:02:47;9.55;;;8.10;;
45909;SDS011;31622;55.416;37.840;2023-12-07T13:05:13;9.40;;;8.02;;
45909;SDS011;31622;55.416;37.840;2023-12-07T13:07:38;8.20;;;7.32;;
45909;SDS011;31622;55.416;37.840;2023-12-07T13:10:04;10.18;;;8.02;;
45909;SDS011;31622;55.416;37.840;2023-12-07T13:12:33;8.90;;;7.50;;
45909;SDS011;31622;55.416;37.840;2023-12-07T13:15:00;9.25;;;7.13;;
45909;SDS011;31622;55.416;37.840;2023-12-07T13:17:26;7.82;;;7.03;;
45909;SDS011;31622;55.416;37.840;2023-12-07T13:19:52;8.05;;;6.85;;
45909;SDS011;31622;55.416;37.840;2023-12-07T13:22:18;8.55;;;6.57;;
45909;SDS011;31622;55.416;37.840;2023-12-07T13:24:45;7.65;;;6.78;;
45909;SDS011;31622;55.416;37.840;2023-12-07T13:27:13;7.47;;;6.50;;
45909;SDS011;31622;55.416;37.840;2023-12-07T13:29:40;7.80;;;6.68;;
45909;SDS011;31622;55.416;37.840;2023-12-07T13:32:06;8.60;;;7.07;;
45909;SDS011;31622;55.416;37.840;2023-12-07T13:34:33;7.03;;;6.22;;
45909;SDS011;31622;55.416;37.840;2023-12-07T13:36:59;9.05;;;7.50;;
45909;SDS011;31622;55.416;37.840;2023-12-07T13:39:24;8.32;;;7.18;;
45909;SDS011;31622;55.416;37.840;2023-12-07T13:41:52;9.23;;;8.20;;
45909;SDS011;31622;55.416;37.840;2023-12-07T13:44:17;10.25;;;8.40;;
45909;SDS011;31622;55.416;37.840;2023-12-07T13:46:44;9.57;;;8.30;;
45909;SDS011;31622;55.416;37.840;2023-12-07T13:49:10;11.25;;;9.18;;
45909;SDS011;31622;55.416;37.840;2023-12-07T13:51:39;10.85;;;9.10;;
45909;SDS011;31622;55.416;37.840;2023-12-07T13:54:06;10.38;;;8.40;;
45909;SDS011;31622;55.416;37.840;2023-12-07T13:56:33;9.80;;;8.80;;
45909;SDS011;31622;55.416;37.840;2023-12-07T13:59:02;11.45;;;8.98;;
45909;SDS011;31622;55.416;37.840;2023-12-07T14:01:28;10.90;;;8.75;;
45909;SDS011;31622;55.416;37.840;2023-12-07T14:03:56;10.07;;;7.82;;
45909;SDS011;31622;55.416;37.840;2023-12-07T14:06:22;9.98;;;8.30;;
45909;SDS011;31622;55.416;37.840;2023-12-07T14:08:52;10.40;;;8.35;;
45909;SDS011;31622;55.416;37.840;2023-12-07T14:11:18;9.82;;;8.48;;
45909;SDS011;31622;55.416;37.840;2023-12-07T14:13:44;9.85;;;8.30;;
45909;SDS011;31622;55.416;37.840;2023-12-07T14:16:12;8.38;;;7.47;;
45909;SDS011;31622;55.416;37.840;2023-12-07T14:18:38;8.57;;;7.40;;
45909;SDS011;31622;55.416;37.840;2023-12-07T14:21:03;8.95;;;7.18;;
45909;SDS011;31622;55.416;37.840;2023-12-07T14:23:29;8.85;;;7.30;;
45909;SDS011;31622;55.416;37.840;2023-12-07T14:25:55;9.25;;;7.30;;
45909;SDS011;31622;55.416;37.840;2023-12-07T14:28:24;7.72;;;6.72;;
45909;SDS011;31622;55.416;37.840;2023-12-07T14:30:50;8.07;;;6.90;;
45909;SDS011;31622;55.416;37.840;2023-12-07T14:33:21;9.40;;;7.75;;